SWA1761 KDCA-KPVD
Flight info
| Callsign | SWA1761 |
|---|---|
| Flight time | 1h 1m |
| Altitude | 27000 |
| Route | SOOKI6 SWANN BROSS Q419 RBV Q430 CREEL ORCHA JORDN JORDN2 |
| Aircraft | B738/M-VGDW/C |
Departure
| Time | 2026-05-05 20:43 |
|---|---|
| Airport | Ronald Reagan Washington National Airport (KDCA) |
Arrival
| Time | 2026-05-05 21:45 |
|---|---|
| Airport | Rhode Island T. F. Green International Airport (KPVD) |
| Time | Latitude | Longitude | Altitude | Speed | Heading |
|---|---|---|---|---|---|
| 2026-05-05 20:22 | 38.84676 | -77.04179 | 23 ft | 0 kts | 297° |
| 2026-05-05 20:34 | 38.84676 | -77.04178 | 24 ft | 2 kts | 297° |
| 2026-05-05 20:35 | 38.84668 | -77.04160 | 29 ft | 2 kts | 297° |
| 2026-05-05 20:35 | 38.84661 | -77.04141 | 26 ft | 2 kts | 297° |
| 2026-05-05 20:35 | 38.84653 | -77.04123 | 27 ft | 2 kts | 319° |
| 2026-05-05 20:35 | 38.84641 | -77.04116 | 26 ft | 1 kts | 20° |
| 2026-05-05 20:36 | 38.84635 | -77.04119 | 25 ft | 0 kts | 28° |
| 2026-05-05 20:38 | 38.84640 | -77.04112 | 24 ft | 4 kts | 47° |
| 2026-05-05 20:38 | 38.84679 | -77.04019 | 22 ft | 18 kts | 50° |
| 2026-05-05 20:38 | 38.84811 | -77.03948 | 19 ft | 20 kts | 5° |
| 2026-05-05 20:39 | 38.84941 | -77.03897 | 16 ft | 20 kts | 358° |
| 2026-05-05 20:39 | 38.85078 | -77.03911 | 18 ft | 19 kts | 355° |
| 2026-05-05 20:39 | 38.85210 | -77.03923 | 18 ft | 19 kts | 356° |
| 2026-05-05 20:39 | 38.85339 | -77.03935 | 19 ft | 18 kts | 355° |
| 2026-05-05 20:40 | 38.85462 | -77.03948 | 22 ft | 18 kts | 355° |
| 2026-05-05 20:40 | 38.85556 | -77.03957 | 22 ft | 0 kts | 356° |
| 2026-05-05 20:40 | 38.85562 | -77.03958 | 23 ft | 3 kts | 356° |
| 2026-05-05 20:40 | 38.85595 | -77.03961 | 23 ft | 6 kts | 355° |
| 2026-05-05 20:41 | 38.85639 | -77.03966 | 23 ft | 8 kts | 354° |
| 2026-05-05 20:41 | 38.85752 | -77.03978 | 25 ft | 25 kts | 355° |
| 2026-05-05 20:41 | 38.85867 | -77.03988 | 25 ft | 12 kts | 357° |
| 2026-05-05 20:41 | 38.85951 | -77.03978 | 23 ft | 13 kts | 12° |
| 2026-05-05 20:42 | 38.86052 | -77.03941 | 20 ft | 5 kts | 34° |
| 2026-05-05 20:42 | 38.86062 | -77.03895 | 19 ft | 6 kts | 107° |
| 2026-05-05 20:42 | 38.86028 | -77.03867 | 22 ft | 6 kts | 166° |
| 2026-05-05 20:42 | 38.85891 | -77.03852 | 24 ft | 49 kts | 175° |
| 2026-05-05 20:43 | 38.85317 | -77.03792 | 18 ft | 114 kts | 176° |
| 2026-05-05 20:43 | 38.84399 | -77.03716 | 330 ft | 140 kts | 177° |
| 2026-05-05 20:43 | 38.83373 | -77.03593 | 932 ft | 155 kts | 174° |
| 2026-05-05 20:43 | 38.82266 | -77.03355 | 1665 ft | 159 kts | 175° |
| 2026-05-05 20:44 | 38.81129 | -77.03104 | 2297 ft | 180 kts | 174° |
| 2026-05-05 20:44 | 38.79791 | -77.02817 | 2510 ft | 209 kts | 174° |
| 2026-05-05 20:44 | 38.78311 | -77.02500 | 2917 ft | 224 kts | 174° |
| 2026-05-05 20:44 | 38.76816 | -77.01899 | 3607 ft | 233 kts | 154° |
| 2026-05-05 20:45 | 38.75156 | -76.98071 | 4841 ft | 283 kts | 97° |
| 2026-05-05 20:45 | 38.75136 | -76.95508 | 5564 ft | 292 kts | 95° |
| 2026-05-05 20:45 | 38.75435 | -76.92910 | 6402 ft | 302 kts | 71° |
| 2026-05-05 20:46 | 38.76605 | -76.90662 | 7167 ft | 310 kts | 42° |
| 2026-05-05 20:46 | 38.78381 | -76.89079 | 7918 ft | 313 kts | 28° |
| 2026-05-05 20:46 | 38.80279 | -76.87662 | 8722 ft | 317 kts | 26° |
| 2026-05-05 20:46 | 38.82194 | -76.86229 | 9493 ft | 321 kts | 26° |
| 2026-05-05 20:47 | 38.84124 | -76.84755 | 10240 ft | 326 kts | 26° |
| 2026-05-05 20:47 | 38.86121 | -76.83213 | 10567 ft | 346 kts | 28° |
| 2026-05-05 20:47 | 38.88131 | -76.81288 | 10745 ft | 373 kts | 38° |
| 2026-05-05 20:47 | 38.90090 | -76.79000 | 11165 ft | 387 kts | 40° |
| 2026-05-05 20:48 | 38.92056 | -76.76602 | 11874 ft | 391 kts | 40° |
| 2026-05-05 20:48 | 38.94036 | -76.74208 | 12666 ft | 392 kts | 40° |
| 2026-05-05 20:48 | 38.96042 | -76.71834 | 13465 ft | 393 kts | 39° |
| 2026-05-05 20:48 | 38.98079 | -76.69460 | 14145 ft | 396 kts | 39° |
| 2026-05-05 20:49 | 39.00132 | -76.67080 | 14802 ft | 399 kts | 39° |
| 2026-05-05 20:49 | 39.02192 | -76.64646 | 15451 ft | 404 kts | 41° |
| 2026-05-05 20:49 | 39.04193 | -76.62093 | 16089 ft | 407 kts | 43° |
| 2026-05-05 20:49 | 39.06193 | -76.59488 | 16721 ft | 411 kts | 43° |
| 2026-05-05 20:50 | 39.08219 | -76.56869 | 17325 ft | 415 kts | 42° |
| 2026-05-05 20:50 | 39.10252 | -76.54212 | 17939 ft | 419 kts | 47° |
| 2026-05-05 20:50 | 39.11807 | -76.51013 | 18461 ft | 426 kts | 67° |
| 2026-05-05 20:50 | 39.12532 | -76.47366 | 19022 ft | 428 kts | 82° |
| 2026-05-05 20:51 | 39.12945 | -76.43561 | 19606 ft | 429 kts | 83° |
| 2026-05-05 20:51 | 39.13326 | -76.39735 | 20130 ft | 433 kts | 83° |
| 2026-05-05 20:51 | 39.13717 | -76.35882 | 20619 ft | 437 kts | 82° |
| 2026-05-05 20:51 | 39.14132 | -76.31985 | 21139 ft | 439 kts | 82° |
| 2026-05-05 20:52 | 39.14562 | -76.28085 | 21661 ft | 441 kts | 82° |
| 2026-05-05 20:52 | 39.15001 | -76.24158 | 22163 ft | 444 kts | 82° |
| 2026-05-05 20:52 | 39.15448 | -76.20209 | 22661 ft | 447 kts | 82° |
| 2026-05-05 20:52 | 39.15906 | -76.16241 | 23167 ft | 449 kts | 81° |
| 2026-05-05 20:53 | 39.16367 | -76.12257 | 23625 ft | 451 kts | 81° |
| 2026-05-05 20:53 | 39.16828 | -76.08258 | 24102 ft | 451 kts | 81° |
| 2026-05-05 20:53 | 39.17286 | -76.04264 | 24671 ft | 449 kts | 81° |
| 2026-05-05 20:53 | 39.17738 | -76.00301 | 25248 ft | 446 kts | 81° |
| 2026-05-05 20:54 | 39.18185 | -75.96357 | 25764 ft | 446 kts | 81° |
| 2026-05-05 20:54 | 39.18700 | -75.92415 | 26243 ft | 444 kts | 73° |
| 2026-05-05 20:54 | 39.19812 | -75.88731 | 26731 ft | 439 kts | 58° |
| 2026-05-05 20:54 | 39.21501 | -75.85473 | 26892 ft | 438 kts | 45° |
| 2026-05-05 20:55 | 39.23707 | -75.82813 | 26943 ft | 433 kts | 36° |
| 2026-05-05 20:55 | 39.26028 | -75.80350 | 26908 ft | 430 kts | 35° |
| 2026-05-05 20:55 | 39.28298 | -75.77948 | 26915 ft | 426 kts | 36° |
| 2026-05-05 20:55 | 39.30580 | -75.75508 | 26920 ft | 428 kts | 36° |
| 2026-05-05 20:56 | 39.32871 | -75.73030 | 26917 ft | 429 kts | 36° |
| 2026-05-05 20:56 | 39.35157 | -75.70536 | 26912 ft | 431 kts | 36° |
| 2026-05-05 20:56 | 39.37441 | -75.68031 | 26918 ft | 431 kts | 36° |
| 2026-05-05 20:56 | 39.39732 | -75.65513 | 26905 ft | 432 kts | 36° |
| 2026-05-05 20:57 | 39.42021 | -75.62997 | 26901 ft | 432 kts | 36° |
| 2026-05-05 20:57 | 39.44311 | -75.60481 | 26903 ft | 432 kts | 36° |
| 2026-05-05 20:57 | 39.46596 | -75.57965 | 26897 ft | 432 kts | 36° |
| 2026-05-05 20:57 | 39.48889 | -75.55440 | 26911 ft | 435 kts | 37° |
| 2026-05-05 20:58 | 39.51213 | -75.52879 | 26914 ft | 441 kts | 37° |
| 2026-05-05 20:58 | 39.53556 | -75.50293 | 26905 ft | 444 kts | 37° |
| 2026-05-05 20:58 | 39.55893 | -75.47708 | 26890 ft | 441 kts | 37° |
| 2026-05-05 20:58 | 39.58230 | -75.45122 | 26889 ft | 440 kts | 37° |
| 2026-05-05 20:59 | 39.60552 | -75.42553 | 26884 ft | 439 kts | 37° |
| 2026-05-05 20:59 | 39.62871 | -75.39983 | 26887 ft | 438 kts | 37° |
| 2026-05-05 20:59 | 39.65185 | -75.37418 | 26894 ft | 438 kts | 37° |
| 2026-05-05 20:59 | 39.66755 | -75.35676 | 26895 ft | 438 kts | 37° |
| 2026-05-05 21:00 | 39.67631 | -75.34704 | 26894 ft | 439 kts | 37° |
| 2026-05-05 21:00 | 39.69958 | -75.32119 | 26897 ft | 442 kts | 37° |
| 2026-05-05 21:00 | 39.72298 | -75.29516 | 26890 ft | 443 kts | 37° |
| 2026-05-05 21:00 | 39.74631 | -75.26919 | 26881 ft | 442 kts | 37° |
| 2026-05-05 21:01 | 39.76969 | -75.24314 | 26879 ft | 442 kts | 37° |
| 2026-05-05 21:01 | 39.79279 | -75.21690 | 26876 ft | 443 kts | 40° |
| 2026-05-05 21:01 | 39.81414 | -75.18766 | 26886 ft | 445 kts | 45° |
| 2026-05-05 21:01 | 39.83443 | -75.15719 | 26881 ft | 446 kts | 46° |
| 2026-05-05 21:02 | 39.85449 | -75.12641 | 26879 ft | 446 kts | 46° |
| 2026-05-05 21:02 | 39.87459 | -75.09574 | 26880 ft | 446 kts | 46° |
| 2026-05-05 21:02 | 39.89485 | -75.06517 | 26883 ft | 446 kts | 45° |
| 2026-05-05 21:02 | 39.91521 | -75.03475 | 26883 ft | 446 kts | 45° |
| 2026-05-05 21:03 | 39.93563 | -75.00434 | 26879 ft | 446 kts | 45° |
| 2026-05-05 21:03 | 39.95602 | -74.97397 | 26881 ft | 446 kts | 45° |
| 2026-05-05 21:03 | 39.97594 | -74.94282 | 26876 ft | 448 kts | 50° |
| 2026-05-05 21:03 | 39.99378 | -74.90951 | 26884 ft | 449 kts | 53° |
| 2026-05-05 21:04 | 40.01090 | -74.87542 | 26889 ft | 449 kts | 54° |
| 2026-05-05 21:04 | 40.02783 | -74.84113 | 26875 ft | 450 kts | 54° |
| 2026-05-05 21:04 | 40.04480 | -74.80689 | 26881 ft | 449 kts | 54° |
| 2026-05-05 21:04 | 40.06189 | -74.77274 | 26883 ft | 449 kts | 53° |
| 2026-05-05 21:05 | 40.07909 | -74.73866 | 26872 ft | 449 kts | 53° |
| 2026-05-05 21:05 | 40.09637 | -74.70459 | 26874 ft | 449 kts | 53° |
| 2026-05-05 21:05 | 40.11365 | -74.67054 | 26869 ft | 449 kts | 53° |
| 2026-05-05 21:05 | 40.13089 | -74.63656 | 26872 ft | 449 kts | 53° |
| 2026-05-05 21:06 | 40.14807 | -74.60264 | 26866 ft | 449 kts | 53° |
| 2026-05-05 21:06 | 40.16530 | -74.56858 | 26868 ft | 449 kts | 53° |
| 2026-05-05 21:06 | 40.18253 | -74.53448 | 26871 ft | 448 kts | 53° |
| 2026-05-05 21:06 | 40.19917 | -74.50006 | 26859 ft | 450 kts | 58° |
| 2026-05-05 21:07 | 40.21225 | -74.46278 | 26876 ft | 452 kts | 68° |
| 2026-05-05 21:07 | 40.22246 | -74.42442 | 26885 ft | 453 kts | 69° |
| 2026-05-05 21:07 | 40.23250 | -74.38478 | 26878 ft | 453 kts | 70° |
| 2026-05-05 21:07 | 40.24223 | -74.34615 | 26876 ft | 453 kts | 69° |
| 2026-05-05 21:08 | 40.25218 | -74.30710 | 26888 ft | 453 kts | 69° |
| 2026-05-05 21:08 | 40.26226 | -74.26803 | 26892 ft | 453 kts | 69° |
| 2026-05-05 21:08 | 40.27242 | -74.22902 | 26875 ft | 453 kts | 69° |
| 2026-05-05 21:08 | 40.28261 | -74.19008 | 26884 ft | 453 kts | 69° |
| 2026-05-05 21:09 | 40.29282 | -74.15108 | 26895 ft | 452 kts | 69° |
| 2026-05-05 21:09 | 40.30303 | -74.11202 | 26892 ft | 453 kts | 69° |
| 2026-05-05 21:09 | 40.31319 | -74.07304 | 26884 ft | 452 kts | 69° |
| 2026-05-05 21:09 | 40.32338 | -74.03401 | 26888 ft | 452 kts | 69° |
| 2026-05-05 21:10 | 40.33367 | -73.99451 | 26884 ft | 452 kts | 69° |
| 2026-05-05 21:10 | 40.34361 | -73.95608 | 26892 ft | 452 kts | 69° |
| 2026-05-05 21:10 | 40.35366 | -73.91712 | 26883 ft | 452 kts | 69° |
| 2026-05-05 21:10 | 40.36376 | -73.87807 | 26890 ft | 451 kts | 69° |
| 2026-05-05 21:11 | 40.37382 | -73.83917 | 26887 ft | 451 kts | 69° |
| 2026-05-05 21:11 | 40.38390 | -73.80018 | 26890 ft | 451 kts | 69° |
| 2026-05-05 21:11 | 40.39395 | -73.76122 | 26889 ft | 451 kts | 69° |
| 2026-05-05 21:11 | 40.40398 | -73.72230 | 26895 ft | 451 kts | 69° |
| 2026-05-05 21:12 | 40.41399 | -73.68334 | 26885 ft | 451 kts | 69° |
| 2026-05-05 21:12 | 40.42398 | -73.64442 | 26893 ft | 451 kts | 69° |
| 2026-05-05 21:12 | 40.43398 | -73.60539 | 26888 ft | 451 kts | 69° |
| 2026-05-05 21:12 | 40.44396 | -73.56642 | 26896 ft | 451 kts | 68° |
| 2026-05-05 21:13 | 40.45559 | -73.52832 | 26893 ft | 448 kts | 61° |
| 2026-05-05 21:13 | 40.46937 | -73.49174 | 26909 ft | 447 kts | 60° |
| 2026-05-05 21:13 | 40.48366 | -73.45541 | 26895 ft | 447 kts | 59° |
| 2026-05-05 21:13 | 40.49802 | -73.41919 | 26903 ft | 448 kts | 59° |
| 2026-05-05 21:14 | 40.51230 | -73.38294 | 26898 ft | 448 kts | 59° |
| 2026-05-05 21:14 | 40.52654 | -73.34639 | 26895 ft | 448 kts | 60° |
| 2026-05-05 21:14 | 40.54063 | -73.30989 | 26901 ft | 448 kts | 60° |
| 2026-05-05 21:14 | 40.55467 | -73.27326 | 26895 ft | 448 kts | 60° |
| 2026-05-05 21:15 | 40.56855 | -73.23686 | 26883 ft | 439 kts | 60° |
| 2026-05-05 21:15 | 40.58195 | -73.20157 | 26878 ft | 424 kts | 60° |
| 2026-05-05 21:15 | 40.59490 | -73.16739 | 26886 ft | 414 kts | 60° |
| 2026-05-05 21:15 | 40.60778 | -73.13349 | 26894 ft | 413 kts | 60° |
| 2026-05-05 21:16 | 40.62065 | -73.09962 | 26723 ft | 414 kts | 60° |
| 2026-05-05 21:16 | 40.63346 | -73.06587 | 26426 ft | 410 kts | 60° |
| 2026-05-05 21:16 | 40.64614 | -73.03240 | 26036 ft | 407 kts | 60° |
| 2026-05-05 21:16 | 40.65873 | -72.99912 | 25665 ft | 404 kts | 60° |
| 2026-05-05 21:17 | 40.67121 | -72.96610 | 25288 ft | 402 kts | 60° |
| 2026-05-05 21:17 | 40.68363 | -72.93319 | 24924 ft | 400 kts | 61° |
| 2026-05-05 21:17 | 40.69597 | -72.90047 | 24541 ft | 398 kts | 61° |
| 2026-05-05 21:17 | 40.70829 | -72.86777 | 24156 ft | 397 kts | 61° |
| 2026-05-05 21:18 | 40.72054 | -72.83521 | 23768 ft | 396 kts | 61° |
| 2026-05-05 21:18 | 40.73275 | -72.80270 | 23355 ft | 396 kts | 62° |
| 2026-05-05 21:18 | 40.74493 | -72.77026 | 22920 ft | 394 kts | 62° |
| 2026-05-05 21:18 | 40.75703 | -72.73798 | 22524 ft | 392 kts | 62° |
| 2026-05-05 21:19 | 40.76905 | -72.70587 | 22157 ft | 389 kts | 62° |
| 2026-05-05 21:19 | 40.78100 | -72.67392 | 21773 ft | 387 kts | 62° |
| 2026-05-05 21:19 | 40.79288 | -72.64212 | 21399 ft | 385 kts | 62° |
| 2026-05-05 21:19 | 40.80464 | -72.61059 | 21115 ft | 380 kts | 62° |
| 2026-05-05 21:20 | 40.81626 | -72.57943 | 20767 ft | 378 kts | 62° |
| 2026-05-05 21:20 | 40.82782 | -72.54839 | 20418 ft | 376 kts | 62° |
| 2026-05-05 21:20 | 40.83934 | -72.51745 | 20048 ft | 375 kts | 62° |
| 2026-05-05 21:20 | 40.85081 | -72.48660 | 19685 ft | 373 kts | 62° |
| 2026-05-05 21:21 | 40.86222 | -72.45586 | 19320 ft | 372 kts | 62° |
| 2026-05-05 21:21 | 40.87371 | -72.42528 | 18950 ft | 371 kts | 59° |
| 2026-05-05 21:21 | 40.88979 | -72.39918 | 18560 ft | 364 kts | 36° |
| 2026-05-05 21:21 | 40.91134 | -72.38288 | 18224 ft | 354 kts | 14° |
| 2026-05-05 21:22 | 40.93509 | -72.37638 | 17811 ft | 348 kts | 6° |
| 2026-05-05 21:22 | 40.95760 | -72.36376 | 17296 ft | 361 kts | 34° |
| 2026-05-05 21:22 | 40.97720 | -72.34317 | 16961 ft | 358 kts | 32° |
| 2026-05-05 21:22 | 40.99754 | -72.32443 | 16601 ft | 356 kts | 32° |
| 2026-05-05 21:23 | 41.01653 | -72.30346 | 16220 ft | 359 kts | 44° |
| 2026-05-05 21:23 | 41.02982 | -72.27538 | 15815 ft | 363 kts | 71° |
| 2026-05-05 21:23 | 41.03242 | -72.24256 | 15458 ft | 359 kts | 98° |
| 2026-05-05 21:23 | 41.03129 | -72.21023 | 15142 ft | 358 kts | 87° |
| 2026-05-05 21:24 | 41.03390 | -72.17746 | 14773 ft | 358 kts | 82° |
| 2026-05-05 21:24 | 41.03738 | -72.14483 | 14414 ft | 357 kts | 82° |
| 2026-05-05 21:24 | 41.04062 | -72.11225 | 14085 ft | 356 kts | 83° |
| 2026-05-05 21:24 | 41.04342 | -72.07968 | 13742 ft | 355 kts | 84° |
| 2026-05-05 21:25 | 41.04585 | -72.04723 | 13369 ft | 354 kts | 85° |
| 2026-05-05 21:25 | 41.04809 | -72.01487 | 13017 ft | 353 kts | 85° |
| 2026-05-05 21:25 | 41.05024 | -71.98253 | 12663 ft | 351 kts | 85° |
| 2026-05-05 21:25 | 41.05236 | -71.95033 | 12309 ft | 350 kts | 85° |
| 2026-05-05 21:26 | 41.05663 | -71.91866 | 11930 ft | 350 kts | 68° |
| 2026-05-05 21:26 | 41.06848 | -71.89103 | 11590 ft | 344 kts | 49° |
| 2026-05-05 21:26 | 41.08352 | -71.86653 | 11268 ft | 342 kts | 46° |
| 2026-05-05 21:26 | 41.09891 | -71.84253 | 10922 ft | 341 kts | 46° |
| 2026-05-05 21:27 | 41.11420 | -71.81884 | 10762 ft | 334 kts | 46° |
| 2026-05-05 21:27 | 41.12902 | -71.79570 | 10683 ft | 324 kts | 46° |
| 2026-05-05 21:27 | 41.14342 | -71.77307 | 10510 ft | 319 kts | 46° |
| 2026-05-05 21:27 | 41.15761 | -71.75063 | 10251 ft | 317 kts | 46° |
| 2026-05-05 21:28 | 41.16699 | -71.73578 | 10056 ft | 317 kts | 46° |
| 2026-05-05 21:28 | 41.18113 | -71.71330 | 9744 ft | 317 kts | 47° |
| 2026-05-05 21:28 | 41.19526 | -71.69077 | 9422 ft | 317 kts | 47° |
| 2026-05-05 21:28 | 41.20933 | -71.66831 | 9130 ft | 316 kts | 47° |
| 2026-05-05 21:29 | 41.22336 | -71.64588 | 8836 ft | 315 kts | 47° |
| 2026-05-05 21:29 | 41.23730 | -71.62356 | 8584 ft | 313 kts | 48° |
| 2026-05-05 21:29 | 41.25114 | -71.60137 | 8391 ft | 312 kts | 48° |
| 2026-05-05 21:29 | 41.26500 | -71.57915 | 8207 ft | 313 kts | 48° |
| 2026-05-05 21:30 | 41.27890 | -71.55684 | 8023 ft | 314 kts | 48° |
| 2026-05-05 21:30 | 41.29284 | -71.53446 | 7845 ft | 314 kts | 48° |
| 2026-05-05 21:30 | 41.30679 | -71.51203 | 7653 ft | 315 kts | 49° |
| 2026-05-05 21:30 | 41.32076 | -71.48956 | 7464 ft | 315 kts | 49° |
| 2026-05-05 21:31 | 41.33474 | -71.46707 | 7283 ft | 315 kts | 49° |
| 2026-05-05 21:31 | 41.34871 | -71.44456 | 7086 ft | 315 kts | 49° |
| 2026-05-05 21:31 | 41.36267 | -71.42213 | 6907 ft | 315 kts | 47° |
| 2026-05-05 21:31 | 41.37973 | -71.40476 | 6679 ft | 306 kts | 17° |
| 2026-05-05 21:32 | 41.39981 | -71.39864 | 6553 ft | 289 kts | 353° |
| 2026-05-05 21:32 | 41.41953 | -71.39995 | 6411 ft | 282 kts | 347° |
| 2026-05-05 21:32 | 41.43904 | -71.40228 | 6250 ft | 281 kts | 346° |
| 2026-05-05 21:32 | 41.45852 | -71.40502 | 6076 ft | 281 kts | 346° |
| 2026-05-05 21:33 | 41.47799 | -71.40782 | 5911 ft | 281 kts | 346° |
| 2026-05-05 21:33 | 41.49748 | -71.41043 | 5755 ft | 282 kts | 347° |
| 2026-05-05 21:33 | 41.51705 | -71.41286 | 5587 ft | 283 kts | 347° |
| 2026-05-05 21:33 | 41.53671 | -71.41512 | 5426 ft | 284 kts | 348° |
| 2026-05-05 21:34 | 41.55644 | -71.41724 | 5259 ft | 285 kts | 348° |
| 2026-05-05 21:34 | 41.57623 | -71.41922 | 5099 ft | 286 kts | 348° |
| 2026-05-05 21:34 | 41.59604 | -71.42128 | 4940 ft | 286 kts | 348° |
| 2026-05-05 21:34 | 41.61595 | -71.42316 | 4783 ft | 287 kts | 349° |
| 2026-05-05 21:35 | 41.63594 | -71.42470 | 4613 ft | 289 kts | 350° |
| 2026-05-05 21:35 | 41.65600 | -71.42588 | 4448 ft | 290 kts | 351° |
| 2026-05-05 21:35 | 41.67615 | -71.42724 | 4284 ft | 290 kts | 350° |
| 2026-05-05 21:35 | 41.69624 | -71.42871 | 4124 ft | 290 kts | 352° |
| 2026-05-05 21:36 | 41.71641 | -71.42943 | 3963 ft | 290 kts | 354° |
| 2026-05-05 21:36 | 41.73659 | -71.42998 | 3824 ft | 288 kts | 351° |
| 2026-05-05 21:36 | 41.75657 | -71.43143 | 3674 ft | 287 kts | 350° |
| 2026-05-05 21:36 | 41.77640 | -71.43311 | 3544 ft | 285 kts | 349° |
| 2026-05-05 21:37 | 41.79606 | -71.43495 | 3417 ft | 282 kts | 349° |
| 2026-05-05 21:37 | 41.81547 | -71.43706 | 3319 ft | 278 kts | 348° |
| 2026-05-05 21:37 | 41.83417 | -71.44165 | 3185 ft | 265 kts | 329° |
| 2026-05-05 21:37 | 41.85046 | -71.45238 | 3132 ft | 261 kts | 323° |
| 2026-05-05 21:38 | 41.86595 | -71.46478 | 3028 ft | 253 kts | 315° |
| 2026-05-05 21:38 | 41.87960 | -71.47884 | 2944 ft | 243 kts | 313° |
| 2026-05-05 21:38 | 41.89265 | -71.49256 | 2881 ft | 233 kts | 312° |
| 2026-05-05 21:38 | 41.90538 | -71.50591 | 2858 ft | 234 kts | 312° |
| 2026-05-05 21:39 | 41.91793 | -71.52070 | 2701 ft | 244 kts | 296° |
| 2026-05-05 21:39 | 41.92284 | -71.54114 | 2501 ft | 223 kts | 258° |
| 2026-05-05 21:39 | 41.91689 | -71.55885 | 2462 ft | 205 kts | 224° |
| 2026-05-05 21:39 | 41.90637 | -71.57038 | 2449 ft | 185 kts | 213° |
| 2026-05-05 21:40 | 41.89495 | -71.57651 | 2434 ft | 172 kts | 198° |
| 2026-05-05 21:40 | 41.88319 | -71.57769 | 2451 ft | 172 kts | 180° |
| 2026-05-05 21:40 | 41.87126 | -71.57468 | 2459 ft | 174 kts | 178° |
| 2026-05-05 21:40 | 41.85995 | -71.56846 | 2388 ft | 185 kts | 152° |
| 2026-05-05 21:41 | 41.85016 | -71.55762 | 2300 ft | 178 kts | 152° |
| 2026-05-05 21:41 | 41.84064 | -71.54754 | 2199 ft | 171 kts | 153° |
| 2026-05-05 21:41 | 41.83133 | -71.53775 | 2101 ft | 171 kts | 153° |
| 2026-05-05 21:41 | 41.82197 | -71.52791 | 2021 ft | 170 kts | 153° |
| 2026-05-05 21:42 | 41.81271 | -71.51815 | 1891 ft | 166 kts | 152° |
| 2026-05-05 21:42 | 41.80401 | -71.50884 | 1811 ft | 155 kts | 152° |
| 2026-05-05 21:42 | 41.79595 | -71.50022 | 1692 ft | 139 kts | 153° |
| 2026-05-05 21:42 | 41.78869 | -71.49248 | 1527 ft | 133 kts | 156° |
| 2026-05-05 21:43 | 41.78129 | -71.48472 | 1339 ft | 136 kts | 154° |
| 2026-05-05 21:43 | 41.77376 | -71.47680 | 1157 ft | 142 kts | 152° |
| 2026-05-05 21:43 | 41.76587 | -71.46848 | 971 ft | 144 kts | 149° |
| 2026-05-05 21:43 | 41.75835 | -71.46049 | 783 ft | 137 kts | 148° |
| 2026-05-05 21:44 | 41.75093 | -71.45262 | 671 ft | 136 kts | 148° |
| 2026-05-05 21:44 | 41.74341 | -71.44469 | 432 ft | 137 kts | 147° |
| 2026-05-05 21:44 | 41.73591 | -71.43659 | 260 ft | 144 kts | 146° |
| 2026-05-05 21:44 | 41.72820 | -71.42829 | 74 ft | 137 kts | 148° |
| 2026-05-05 21:45 | 41.72181 | -71.42170 | 51 ft | 69 kts | 141° |
| 2026-05-05 21:45 | 41.71983 | -71.41961 | 43 ft | 23 kts | 142° |
| 2026-05-05 21:45 | 41.71898 | -71.41876 | 42 ft | 13 kts | 156° |
| 2026-05-05 21:45 | 41.71839 | -71.41931 | 43 ft | 12 kts | 271° |
| 2026-05-05 21:46 | 41.71892 | -71.42015 | 44 ft | 12 kts | 322° |
| 2026-05-05 21:46 | 41.71956 | -71.42083 | 47 ft | 12 kts | 321° |
| 2026-05-05 21:46 | 41.72019 | -71.42151 | 51 ft | 14 kts | 321° |
| 2026-05-05 21:46 | 41.72125 | -71.42262 | 53 ft | 25 kts | 321° |
| 2026-05-05 21:47 | 41.72275 | -71.42421 | 56 ft | 28 kts | 322° |
| 2026-05-05 21:47 | 41.72411 | -71.42595 | 50 ft | 27 kts | 303° |
| 2026-05-05 21:47 | 41.72508 | -71.42797 | 52 ft | 25 kts | 303° |
| 2026-05-05 21:47 | 41.72555 | -71.43005 | 51 ft | 23 kts | 265° |
| 2026-05-05 21:48 | 41.72543 | -71.43185 | 62 ft | 16 kts | 268° |
| 2026-05-05 21:48 | 41.72565 | -71.43321 | 61 ft | 15 kts | 323° |
| 2026-05-05 21:48 | 41.72643 | -71.43354 | 58 ft | 9 kts | 20° |
| 2026-05-05 21:48 | 41.72694 | -71.43307 | 64 ft | 9 kts | 30° |
| 2026-05-05 21:49 | 41.72737 | -71.43325 | 63 ft | 0 kts | 313° |